Time;durP1;ratioP1;P1;durP2;ratioP2;P2;SDS_P1;SDS_P2;PMS_P1;PMS_P2;Temp;Humidity;BMP_temperature;BMP_pressure;BME280_temperature;BME280_humidity;BME280_pressure;Samples;Min_cycle;Max_cycle;Signal;HPM_P1;HPM_P2
2024/01/27 00:01:40;;;;;;;41.50;18.90;;;7.40;98.40;;;;;;4247381;28;20043;-58
2024/01/27 00:03:47;;;;;;;44.75;19.33;;;7.30;98.70;;;;;;4248023;28;20090;-60
2024/01/27 00:05:49;;;;;;;35.97;18.55;;;7.30;98.70;;;;;;4249138;28;20062;-60
2024/01/27 00:07:51;;;;;;;41.38;19.33;;;7.40;99.10;;;;;;4252822;27;20403;-60
2024/01/27 00:09:55;;;;;;;45.13;18.27;;;7.30;98.40;;;;;;4251057;27;20047;-64
2024/01/27 00:11:57;;;;;;;45.40;17.45;;;7.30;99.10;;;;;;4250647;27;20122;-59
2024/01/27 00:13:59;;;;;;;42.42;18.73;;;7.40;99.10;;;;;;4250684;27;20051;-59
2024/01/27 00:16:03;;;;;;;33.95;17.10;;;7.30;98.40;;;;;;4250636;27;20414;-58
2024/01/27 00:18:06;;;;;;;37.60;17.42;;;7.20;99.00;;;;;;4250580;27;20047;-59
2024/01/27 00:20:08;;;;;;;33.05;15.40;;;7.10;99.80;;;;;;4250483;27;20099;-59
2024/01/27 00:22:16;;;;;;;38.03;17.20;;;7.20;99.90;;;;;;4250471;27;20107;-58
2024/01/27 00:24:19;;;;;;;43.15;19.23;;;7.20;99.10;;;;;;4235274;27;20043;-60
2024/01/27 00:26:22;;;;;;;34.80;17.23;;;7.10;98.80;;;;;;4268448;27;20059;-59
2024/01/27 00:28:24;;;;;;;40.30;18.23;;;7.00;99.50;;;;;;4269918;27;20045;-62
2024/01/27 00:30:26;;;;;;;38.67;18.73;;;7.00;99.00;;;;;;4269128;27;20043;-60
2024/01/27 00:32:33;;;;;;;40.13;17.88;;;6.90;99.00;;;;;;4269690;27;20107;-64
2024/01/27 00:34:38;;;;;;;35.03;17.20;;;7.00;99.30;;;;;;4268617;27;20481;-57
2024/01/27 00:37:03;;;;;;;37.13;17.73;;;6.90;99.30;;;;;;4267580;27;20042;-59
2024/01/27 00:39:05;;;;;;;38.10;17.23;;;6.90;99.20;;;;;;4267566;27;20043;-59
2024/01/27 00:41:12;;;;;;;39.47;17.38;;;6.90;99.40;;;;;;4267789;27;20405;-60
2024/01/27 00:43:17;;;;;;;37.20;18.75;;;6.90;99.40;;;;;;4267788;27;20454;-59
2024/01/27 00:45:26;;;;;;;33.33;17.70;;;6.90;99.30;;;;;;4266030;27;20047;-67
2024/01/27 00:47:38;;;;;;;35.83;19.02;;;7.00;99.50;;;;;;4249332;27;20078;-62
2024/01/27 00:49:41;;;;;;;45.05;18.85;;;6.80;99.30;;;;;;4267790;27;20115;-59
2024/01/27 00:51:46;;;;;;;43.17;19.67;;;6.90;99.60;;;;;;4249543;27;20530;-58
2024/01/27 00:53:49;;;;;;;42.05;18.85;;;6.90;99.80;;;;;;4250710;27;20130;-60
2024/01/27 00:55:51;;;;;;;45.78;19.77;;;6.90;99.90;;;;;;4262167;27;20039;-58
2024/01/27 00:57:53;;;;;;;43.90;19.30;;;6.90;99.40;;;;;;4252157;27;20047;-58
2024/01/27 00:59:55;;;;;;;39.72;17.95;;;6.80;99.80;;;;;;4250578;27;20084;-58
2024/01/27 01:01:57;;;;;;;42.08;17.83;;;6.70;99.90;;;;;;4249532;27;20049;-59
2024/01/27 01:04:03;;;;;;;35.45;17.70;;;6.60;99.90;;;;;;4249880;27;20053;-58
2024/01/27 01:06:09;;;;;;;41.92;18.92;;;6.90;99.90;;;;;;4250276;27;20050;-62
2024/01/27 01:08:12;;;;;;;39.65;17.33;;;6.90;99.90;;;;;;4232008;28;20407;-62
2024/01/27 01:10:16;;;;;;;38.83;19.73;;;7.00;99.90;;;;;;4252048;27;20102;-58
2024/01/27 01:12:19;;;;;;;42.42;19.00;;;7.00;99.80;;;;;;4251677;27;20103;-61
2024/01/27 01:14:21;;;;;;;41.67;20.35;;;7.00;99.90;;;;;;4251768;27;20070;-60
2024/01/27 01:16:23;;;;;;;40.42;18.95;;;7.10;99.80;;;;;;4251183;27;20055;-62
2024/01/27 01:18:28;;;;;;;36.67;19.48;;;6.90;99.40;;;;;;4249750;27;20112;-58
2024/01/27 01:20:35;;;;;;;44.75;20.02;;;6.80;99.30;;;;;;4249884;27;20074;-58
2024/01/27 01:22:38;;;;;;;41.05;19.67;;;6.70;99.80;;;;;;4250381;27;20054;-59
2024/01/27 01:24:42;;;;;;;;;;;6.60;99.90;;;;;;4256660;27;20099;-58
2024/01/27 01:26:46;;;;;;;39.53;19.67;;;6.70;99.90;;;;;;4266914;27;19923;-59
2024/01/27 01:28:54;;;;;;;41.75;20.08;;;6.70;99.90;;;;;;4266177;27;20375;-58
2024/01/27 01:30:59;;;;;;;41.42;20.17;;;6.70;99.90;;;;;;4266070;27;20098;-59
2024/01/27 01:33:01;;;;;;;36.78;17.63;;;6.80;99.90;;;;;;4266474;27;20062;-59
2024/01/27 01:35:04;;;;;;;44.85;19.13;;;6.80;99.90;;;;;;4266404;27;20062;-59
2024/01/27 01:37:07;;;;;;;42.05;18.33;;;6.90;99.90;;;;;;4266419;27;20066;-59
2024/01/27 01:39:12;;;;;;;40.08;19.88;;;6.90;99.90;;;;;;4266238;27;20062;-59
2024/01/27 01:41:14;;;;;;;41.30;18.55;;;6.90;99.90;;;;;;4266165;27;20099;-58
2024/01/27 01:43:17;;;;;;;47.08;23.08;;;6.70;99.90;;;;;;4265807;27;20049;-58
2024/01/27 01:45:20;;;;;;;37.15;19.48;;;6.70;99.90;;;;;;4265994;27;20043;-58
2024/01/27 01:47:23;;;;;;;39.28;20.25;;;6.70;99.90;;;;;;4266422;27;20047;-58
2024/01/27 01:49:26;;;;;;;39.28;21.20;;;6.70;99.90;;;;;;4247617;27;20410;-58
2024/01/27 01:51:28;;;;;;;43.15;21.23;;;6.80;99.90;;;;;;4266185;27;20119;-57
2024/01/27 01:53:32;;;;;;;41.75;21.70;;;6.70;99.90;;;;;;4265850;27;20038;-58
2024/01/27 01:55:34;;;;;;;42.60;22.00;;;6.70;99.90;;;;;;4260584;27;20062;-58
2024/01/27 01:57:36;;;;;;;46.13;20.10;;;6.70;99.90;;;;;;4248761;27;20477;-58
2024/01/27 01:59:40;;;;;;;38.45;19.67;;;6.80;99.90;;;;;;4248485;27;20071;-59
2024/01/27 02:01:43;;;;;;;41.47;19.27;;;6.80;99.90;;;;;;4248612;27;20108;-59
2024/01/27 02:03:52;;;;;;;33.67;15.55;;;6.80;99.90;;;;;;4248419;27;20383;-59
2024/01/27 02:05:55;;;;;;;39.92;19.30;;;6.80;99.90;;;;;;4248662;27;20043;-58
2024/01/27 02:07:59;;;;;;;43.20;20.42;;;6.80;99.90;;;;;;4230338;28;20088;-58
2024/01/27 02:10:05;;;;;;;39.78;19.63;;;6.80;99.90;;;;;;4248512;27;20050;-59
2024/01/27 02:12:07;;;;;;;46.47;20.88;;;6.80;99.90;;;;;;4248217;27;20047;-58
2024/01/27 02:14:09;;;;;;;40.63;19.77;;;6.80;99.90;;;;;;4248370;27;20070;-57
2024/01/27 02:16:11;;;;;;;44.03;22.52;;;6.80;99.90;;;;;;4248414;27;20047;-58
2024/01/27 02:18:13;;;;;;;47.42;22.02;;;6.80;99.90;;;;;;4248321;27;20122;-58
2024/01/27 02:20:16;;;;;;;40.45;21.40;;;6.70;99.90;;;;;;4229857;28;20040;-59
2024/01/27 02:22:18;;;;;;;41.42;19.73;;;6.70;99.90;;;;;;4248336;27;20040;-58
2024/01/27 02:24:21;;;;;;;38.92;19.67;;;6.70;99.90;;;;;;4251761;27;20046;-57
2024/01/27 02:26:23;;;;;;;44.80;23.13;;;6.70;99.90;;;;;;4264874;27;20099;-58
2024/01/27 02:28:25;;;;;;;42.30;21.63;;;6.80;99.90;;;;;;4265259;27;20049;-58
2024/01/27 02:30:28;;;;;;;35.67;19.02;;;6.70;99.90;;;;;;4264576;27;20046;-58
2024/01/27 02:32:30;;;;;;;47.08;21.75;;;6.70;99.90;;;;;;4265457;27;20457;-58
2024/01/27 02:34:32;;;;;;;42.83;21.13;;;6.60;99.90;;;;;;4265320;27;20049;-58
2024/01/27 02:36:34;;;;;;;45.30;21.83;;;6.50;99.90;;;;;;4265607;27;20061;-58
2024/01/27 02:38:36;;;;;;;50.17;22.08;;;6.50;99.90;;;;;;4265140;27;20413;-58
2024/01/27 02:40:39;;;;;;;43.13;19.42;;;6.50;99.90;;;;;;4264902;27;20408;-58
2024/01/27 02:42:43;;;;;;;41.15;19.40;;;6.50;99.90;;;;;;4265299;27;20447;-58
2024/01/27 02:44:45;;;;;;;40.70;18.80;;;6.40;99.70;;;;;;4247004;27;20047;-58
2024/01/27 02:46:47;;;;;;;35.40;17.27;;;6.40;99.90;;;;;;4265023;27;20043;-58
2024/01/27 02:48:49;;;;;;;40.38;18.10;;;6.40;99.90;;;;;;4265261;27;20043;-57
2024/01/27 02:50:51;;;;;;;36.45;17.85;;;6.40;99.90;;;;;;4265229;27;20063;-58
2024/01/27 02:52:53;;;;;;;42.47;16.65;;;6.40;99.90;;;;;;4265895;27;20051;-60
2024/01/27 02:54:56;;;;;;;42.60;17.13;;;6.40;99.90;;;;;;4267299;27;20121;-64
2024/01/27 02:56:59;;;;;;;41.22;17.58;;;6.40;99.90;;;;;;4233051;28;20086;-62
2024/01/27 02:59:01;;;;;;;38.42;16.58;;;6.40;99.70;;;;;;4231950;28;20055;-58
2024/01/27 03:01:04;;;;;;;33.70;14.95;;;6.40;99.90;;;;;;4231055;28;20048;-59
2024/01/27 03:03:06;;;;;;;37.63;15.55;;;6.40;99.90;;;;;;4196071;28;20063;-58
2024/01/27 03:05:08;;;;;;;33.60;15.45;;;6.30;99.70;;;;;;4230940;28;20044;-58
2024/01/27 03:07:10;;;;;;;36.55;16.00;;;6.30;99.90;;;;;;4212447;28;20059;-58
2024/01/27 03:09:12;;;;;;;36.67;16.00;;;6.30;99.60;;;;;;4230453;28;20050;-59
2024/01/27 03:11:14;;;;;;;32.67;14.90;;;6.40;99.90;;;;;;4230588;28;20048;-59
2024/01/27 03:13:18;;;;;;;33.88;14.60;;;6.30;99.60;;;;;;4230574;28;20494;-58
2024/01/27 03:15:21;;;;;;;29.83;14.57;;;6.20;99.40;;;;;;4230625;28;20043;-59
2024/01/27 03:17:23;;;;;;;32.35;13.93;;;6.20;99.50;;;;;;4230844;28;20480;-58
2024/01/27 03:19:25;;;;;;;28.15;13.60;;;6.20;99.60;;;;;;4230443;28;20054;-58
2024/01/27 03:21:27;;;;;;;33.30;14.27;;;6.20;99.60;;;;;;4244424;28;20051;-58
2024/01/27 03:23:29;;;;;;;28.95;13.90;;;6.20;99.50;;;;;;4247218;28;20096;-58
2024/01/27 03:25:31;;;;;;;31.80;14.18;;;6.20;99.60;;;;;;4260991;27;20038;-58
2024/01/27 03:27:33;;;;;;;34.45;12.88;;;6.20;99.70;;;;;;4264646;27;20057;-59
2024/01/27 03:29:37;;;;;;;30.05;13.07;;;6.30;99.90;;;;;;4264787;27;20046;-59
2024/01/27 03:31:39;;;;;;;32.17;13.68;;;6.20;99.10;;;;;;4264809;27;20482;-58
2024/01/27 03:33:42;;;;;;;26.08;11.30;;;6.20;99.30;;;;;;4246512;28;20043;-59
2024/01/27 03:35:44;;;;;;;39.28;12.95;;;6.10;99.40;;;;;;4264386;27;20046;-58
2024/01/27 03:37:46;;;;;;;29.95;13.07;;;6.20;99.50;;;;;;4264239;27;20085;-58
2024/01/27 03:39:48;;;;;;;26.40;12.38;;;6.10;99.70;;;;;;4264681;27;20066;-58
2024/01/27 03:41:50;;;;;;;27.05;12.65;;;6.10;99.60;;;;;;4265923;27;20107;-58
2024/01/27 03:43:52;;;;;;;31.02;13.63;;;6.10;99.30;;;;;;4268091;27;20039;-58
2024/01/27 03:45:55;;;;;;;30.20;12.68;;;6.00;99.10;;;;;;4267753;27;20499;-59
2024/01/27 03:47:57;;;;;;;28.02;11.55;;;6.10;99.30;;;;;;4267960;27;20050;-59
2024/01/27 03:50:00;;;;;;;32.13;10.70;;;5.90;98.70;;;;;;4268028;27;20095;-59
2024/01/27 03:52:02;;;;;;;28.33;10.98;;;5.90;99.40;;;;;;4267820;27;20457;-58
2024/01/27 03:54:04;;;;;;;27.35;11.27;;;5.80;99.20;;;;;;4267582;27;20043;-58
2024/01/27 03:56:07;;;;;;;24.13;10.80;;;5.80;99.70;;;;;;4257630;27;20126;-59
2024/01/27 03:58:09;;;;;;;27.17;10.50;;;5.80;99.70;;;;;;4250790;27;20570;-59
2024/01/27 04:00:12;;;;;;;26.98;10.02;;;5.90;99.90;;;;;;4250513;27;20050;-58
2024/01/27 04:02:15;;;;;;;26.08;10.57;;;6.00;99.80;;;;;;4250539;27;20047;-59
2024/01/27 04:04:18;;;;;;;29.23;11.30;;;5.90;99.20;;;;;;4232252;28;20090;-58
2024/01/27 04:06:20;;;;;;;29.02;10.32;;;5.90;99.30;;;;;;4250610;27;20047;-58
2024/01/27 04:08:22;;;;;;;27.88;11.50;;;5.90;99.90;;;;;;4250150;27;20050;-59
2024/01/27 04:10:24;;;;;;;39.08;11.68;;;5.90;99.90;;;;;;4250538;27;20405;-58
2024/01/27 04:12:26;;;;;;;34.85;12.27;;;5.70;99.70;;;;;;4250573;27;20108;-58
2024/01/27 04:14:28;;;;;;;29.38;10.45;;;5.80;99.60;;;;;;4232373;28;20047;-59
2024/01/27 04:16:30;;;;;;;31.20;11.30;;;5.80;99.90;;;;;;4250401;27;20130;-59
2024/01/27 04:18:34;;;;;;;32.60;11.52;;;5.90;99.90;;;;;;4251222;27;20126;-60
2024/01/27 04:20:36;;;;;;;28.25;11.07;;;5.80;99.90;;;;;;4251192;27;20548;-63
2024/01/27 04:22:39;;;;;;;30.90;12.00;;;5.90;99.70;;;;;;4250591;27;20330;-58
2024/01/27 04:24:41;;;;;;;33.03;12.18;;;5.80;99.60;;;;;;4257422;27;20393;-66
2024/01/27 04:26:43;;;;;;;25.55;12.13;;;5.80;99.70;;;;;;4268193;27;20039;-59
2024/01/27 04:28:45;;;;;;;29.95;12.05;;;5.70;99.70;;;;;;4267618;27;20035;-59
2024/01/27 04:30:47;;;;;;;27.65;11.05;;;5.70;99.90;;;;;;4267405;27;20050;-58
2024/01/27 04:32:51;;;;;;;26.75;11.95;;;5.80;99.90;;;;;;4267460;27;20043;-59
2024/01/27 04:34:55;;;;;;;23.73;11.27;;;5.70;99.40;;;;;;4267600;27;20043;-59
2024/01/27 04:36:57;;;;;;;27.27;12.25;;;5.70;99.90;;;;;;4266707;27;20117;-59
2024/01/27 04:38:59;;;;;;;31.73;13.32;;;5.60;99.60;;;;;;4267084;27;20034;-59
2024/01/27 04:41:02;;;;;;;35.20;13.07;;;5.70;99.90;;;;;;4267279;27;20047;-59
2024/01/27 04:43:04;;;;;;;38.50;15.75;;;5.60;99.90;;;;;;4266834;27;20069;-58
2024/01/27 04:45:07;;;;;;;30.25;14.90;;;5.60;99.90;;;;;;4267195;27;20046;-58
2024/01/27 04:47:09;;;;;;;33.28;14.93;;;5.70;99.90;;;;;;4266817;27;20047;-59
2024/01/27 04:49:11;;;;;;;37.20;15.77;;;5.60;99.90;;;;;;4248660;27;20069;-59
2024/01/27 04:51:15;;;;;;;39.67;15.95;;;5.50;99.70;;;;;;4266739;27;20043;-58
2024/01/27 04:53:17;;;;;;;34.70;15.13;;;5.40;99.70;;;;;;4265697;27;20057;-59
2024/01/27 04:55:19;;;;;;;37.25;15.18;;;5.50;99.90;;;;;;4263593;27;20092;-59
2024/01/27 04:57:21;;;;;;;36.15;16.25;;;5.50;99.90;;;;;;4249659;27;20067;-59
2024/01/27 04:59:24;;;;;;;32.10;14.80;;;5.50;99.90;;;;;;4249823;27;20492;-59
2024/01/27 05:01:26;;;;;;;32.17;16.33;;;5.50;99.90;;;;;;4249579;27;20047;-58
2024/01/27 05:03:28;;;;;;;31.50;16.50;;;5.50;99.90;;;;;;4249651;27;20402;-59
2024/01/27 05:05:31;;;;;;;34.78;15.95;;;5.40;99.90;;;;;;4231137;28;20073;-59
2024/01/27 05:07:39;;;;;;;37.67;16.50;;;5.30;99.90;;;;;;4231047;28;20147;-58
2024/01/27 05:09:41;;;;;;;37.88;15.18;;;5.30;99.90;;;;;;4249576;27;20142;-59
2024/01/27 05:11:45;;;;;;;36.75;17.65;;;5.30;99.90;;;;;;4249460;27;20118;-59
2024/01/27 05:13:47;;;;;;;32.90;14.60;;;5.30;99.90;;;;;;4249165;27;20067;-59
2024/01/27 05:15:49;;;;;;;31.38;14.82;;;5.40;99.90;;;;;;4249310;27;20046;-58
2024/01/27 05:17:51;;;;;;;33.97;15.40;;;5.50;99.90;;;;;;4249471;27;20039;-59
2024/01/27 05:19:54;;;;;;;38.45;16.35;;;5.40;99.90;;;;;;4230430;28;20100;-59
2024/01/27 05:21:56;;;;;;;35.47;16.15;;;5.30;99.90;;;;;;4249263;27;20050;-58
2024/01/27 05:23:59;;;;;;;38.28;15.40;;;5.40;99.90;;;;;;4249491;27;20482;-59
2024/01/27 05:26:02;;;;;;;29.75;13.55;;;5.30;99.90;;;;;;4266554;27;20485;-57
2024/01/27 05:28:04;;;;;;;29.77;14.85;;;5.40;99.90;;;;;;4266282;27;20047;-58
2024/01/27 05:30:08;;;;;;;30.75;15.00;;;5.30;99.90;;;;;;4266400;27;20680;-58
2024/01/27 05:32:10;;;;;;;27.90;14.30;;;5.20;99.80;;;;;;4266439;27;20042;-59
2024/01/27 05:34:12;;;;;;;38.55;15.95;;;5.00;99.80;;;;;;4266044;27;20421;-58
2024/01/27 05:36:14;;;;;;;36.67;14.05;;;5.10;99.90;;;;;;4266614;27;20159;-58
2024/01/27 05:38:16;;;;;;;36.60;14.48;;;5.00;99.90;;;;;;4266429;27;20049;-58
2024/01/27 05:40:20;;;;;;;38.17;14.95;;;5.00;99.90;;;;;;4248367;27;20128;-59
2024/01/27 05:42:22;;;;;;;28.35;13.98;;;4.90;99.90;;;;;;4269176;27;20061;-58
2024/01/27 05:44:24;;;;;;;30.17;14.25;;;4.90;99.90;;;;;;4268004;27;20046;-58
2024/01/27 05:46:26;;;;;;;29.00;13.48;;;4.90;99.90;;;;;;4266060;27;20155;-58
2024/01/27 05:48:28;;;;;;;36.35;14.38;;;4.90;99.90;;;;;;4265697;27;20133;-58
2024/01/27 05:50:32;;;;;;;29.80;13.00;;;4.90;99.90;;;;;;4266278;27;20118;-60
2024/01/27 05:52:36;;;;;;;30.88;13.77;;;5.00;99.90;;;;;;4266001;27;20047;-60
2024/01/27 05:54:40;;;;;;;33.28;12.77;;;5.10;99.90;;;;;;4266132;27;20050;-59
2024/01/27 05:56:44;;;;;;;32.95;13.95;;;5.20;99.90;;;;;;4250750;27;20053;-59
2024/01/27 05:58:46;;;;;;;41.25;14.23;;;5.20;99.90;;;;;;4248697;27;20123;-60
2024/01/27 06:00:48;;;;;;;33.17;14.35;;;5.10;99.90;;;;;;4249236;27;20490;-59
2024/01/27 06:02:50;;;;;;;30.70;13.40;;;5.10;99.90;;;;;;4248331;27;20043;-59
2024/01/27 06:04:52;;;;;;;36.03;13.65;;;5.10;99.90;;;;;;4249440;27;20399;-60
2024/01/27 06:06:54;;;;;;;26.42;12.13;;;5.20;99.90;;;;;;4252479;27;20437;-60
2024/01/27 06:08:56;;;;;;;34.17;13.65;;;5.20;99.90;;;;;;4252251;27;20051;-59
2024/01/27 06:10:58;;;;;;;32.88;13.88;;;5.20;99.90;;;;;;4251527;27;20107;-59
2024/01/27 06:13:02;;;;;;;28.58;12.60;;;5.10;99.90;;;;;;4248615;27;20078;-59
2024/01/27 06:15:06;;;;;;;28.77;13.38;;;5.10;99.90;;;;;;4248650;27;20508;-59
2024/01/27 06:17:08;;;;;;;28.27;12.57;;;5.10;99.90;;;;;;4248083;27;20488;-58
2024/01/27 06:19:10;;;;;;;30.08;13.15;;;5.10;99.90;;;;;;4248448;27;20436;-59
2024/01/27 06:21:13;;;;;;;28.33;12.32;;;5.00;99.90;;;;;;4248396;27;20043;-58
2024/01/27 06:23:15;;;;;;;22.27;12.18;;;5.00;99.90;;;;;;4248207;27;20043;-58
2024/01/27 06:25:17;;;;;;;32.60;14.00;;;5.00;99.90;;;;;;4259967;27;20127;-59
2024/01/27 06:27:19;;;;;;;30.40;13.32;;;5.00;99.70;;;;;;4265475;27;20447;-59
2024/01/27 06:29:23;;;;;;;34.22;12.95;;;5.00;99.90;;;;;;4265466;27;20058;-59
2024/01/27 06:31:25;;;;;;;33.42;12.93;;;4.90;99.90;;;;;;4265237;27;20042;-58
2024/01/27 06:33:27;;;;;;;21.38;12.05;;;4.80;99.90;;;;;;4265068;27;20042;-59
2024/01/27 06:35:30;;;;;;;28.60;12.25;;;4.90;99.90;;;;;;4265565;27;20081;-59
2024/01/27 06:37:35;;;;;;;32.72;13.10;;;4.80;99.90;;;;;;4265329;27;20409;-59
2024/01/27 06:39:37;;;;;;;29.48;12.57;;;4.80;99.90;;;;;;4265302;27;20482;-60
2024/01/27 06:41:39;;;;;;;32.17;12.27;;;4.80;99.90;;;;;;4265347;27;20039;-59
2024/01/27 06:43:41;;;;;;;33.20;12.82;;;4.70;99.90;;;;;;4265283;27;20042;-59
2024/01/27 06:45:45;;;;;;;30.35;11.25;;;4.70;99.80;;;;;;4265357;27;20052;-58
2024/01/27 06:47:47;;;;;;;33.40;13.02;;;4.70;99.90;;;;;;4264460;27;20072;-59
2024/01/27 06:49:49;;;;;;;23.80;11.73;;;4.70;99.90;;;;;;4265016;27;20047;-59
2024/01/27 06:51:51;;;;;;;31.42;11.10;;;4.70;99.90;;;;;;4264914;27;20050;-59
2024/01/27 06:53:53;;;;;;;23.95;12.23;;;4.70;99.90;;;;;;4265242;27;20038;-59
2024/01/27 06:55:56;;;;;;;29.42;11.07;;;4.60;99.90;;;;;;4256476;27;20039;-59
2024/01/27 06:57:58;;;;;;;30.98;11.43;;;4.80;99.90;;;;;;4229438;28;20062;-59
2024/01/27 07:00:00;;;;;;;24.20;12.30;;;4.90;99.90;;;;;;4247690;27;20070;-58
2024/01/27 07:02:04;;;;;;;29.60;11.73;;;5.00;99.90;;;;;;4247425;27;20039;-58
2024/01/27 07:04:06;;;;;;;20.17;9.52;;;5.00;99.90;;;;;;4247877;27;20039;-58
2024/01/27 07:06:09;;;;;;;31.85;13.80;;;4.90;99.90;;;;;;4247784;27;20138;-59
2024/01/27 07:08:11;;;;;;;24.83;12.18;;;4.80;99.90;;;;;;4247443;27;20053;-59
2024/01/27 07:10:13;;;;;;;35.83;12.38;;;4.80;99.90;;;;;;4247767;27;20429;-59
2024/01/27 07:12:15;;;;;;;29.08;12.05;;;4.90;99.90;;;;;;4247536;28;20754;-58
2024/01/27 07:14:17;;;;;;;28.10;13.23;;;4.90;99.90;;;;;;4247751;28;20127;-59
2024/01/27 07:16:19;;;;;;;25.02;13.18;;;4.90;99.90;;;;;;4246931;27;20100;-58
2024/01/27 07:18:24;;;;;;;32.67;13.02;;;5.10;99.90;;;;;;4229334;28;20055;-59
2024/01/27 07:20:26;;;;;;;23.60;9.50;;;5.10;99.90;;;;;;4242252;28;20044;-59
2024/01/27 07:22:28;;;;;;;28.73;13.20;;;5.10;99.90;;;;;;4230642;28;20035;-59
2024/01/27 07:24:30;;;;;;;29.60;12.70;;;4.90;99.70;;;;;;4239882;27;20038;-59
2024/01/27 07:26:33;;;;;;;30.63;12.55;;;4.70;99.90;;;;;;4265029;27;20043;-59
2024/01/27 07:28:35;;;;;;;27.13;11.95;;;4.80;99.90;;;;;;4264846;27;20057;-59
2024/01/27 07:30:38;;;;;;;29.75;11.93;;;4.70;99.90;;;;;;4264336;27;20038;-59
2024/01/27 07:32:40;;;;;;;25.67;11.75;;;4.70;99.90;;;;;;4265006;27;20089;-59
2024/01/27 07:34:44;;;;;;;27.67;11.65;;;4.70;99.90;;;;;;4264581;27;20070;-59
2024/01/27 07:36:49;;;;;;;26.93;12.27;;;4.70;99.90;;;;;;4264702;27;20043;-59
2024/01/27 07:38:51;;;;;;;29.80;11.77;;;4.70;99.90;;;;;;4264586;27;20050;-60
2024/01/27 07:40:53;;;;;;;28.05;11.90;;;4.80;99.90;;;;;;4264749;27;20053;-59
2024/01/27 07:42:55;;;;;;;28.42;13.13;;;4.80;99.90;;;;;;4265042;27;20508;-58
2024/01/27 07:44:57;;;;;;;26.73;11.88;;;4.70;99.90;;;;;;4264650;27;20400;-59
2024/01/27 07:46:59;;;;;;;26.48;11.45;;;4.80;99.90;;;;;;4264977;27;20145;-59
2024/01/27 07:49:02;;;;;;;27.15;11.57;;;4.70;99.90;;;;;;4264968;27;20039;-60
2024/01/27 07:51:06;;;;;;;31.48;11.55;;;4.70;99.90;;;;;;4265504;27;20050;-66
2024/01/27 07:53:08;;;;;;;27.08;10.45;;;4.70;99.90;;;;;;4265679;27;20129;-59
2024/01/27 07:55:10;;;;;;;28.88;11.32;;;4.80;99.90;;;;;;4262681;27;20047;-59
2024/01/27 07:57:12;;;;;;;21.80;10.50;;;4.90;99.90;;;;;;4247729;28;20138;-59
2024/01/27 07:59:15;;;;;;;27.02;13.18;;;5.10;99.90;;;;;;4249086;28;20047;-59
2024/01/27 08:01:18;;;;;;;25.00;11.45;;;5.00;99.90;;;;;;4250180;28;20131;-61
2024/01/27 08:03:20;;;;;;;26.90;11.43;;;5.00;99.90;;;;;;4249115;28;20054;-59
2024/01/27 08:05:22;;;;;;;29.08;11.52;;;5.00;99.90;;;;;;4248398;28;20043;-60
2024/01/27 08:07:26;;;;;;;29.08;11.95;;;4.90;99.90;;;;;;4231374;28;20055;-62
2024/01/27 08:09:28;;;;;;;30.20;11.85;;;5.10;99.90;;;;;;4249086;28;20051;-59
2024/01/27 08:11:30;;;;;;;23.83;11.98;;;5.10;99.90;;;;;;4248824;28;20039;-62
2024/01/27 08:13:35;;;;;;;;;;;5.00;99.80;;;;;;4248622;28;20456;-59
2024/01/27 08:15:38;;;;;;;33.47;12.65;;;4.90;99.80;;;;;;4247664;28;19970;-59
2024/01/27 08:17:40;;;;;;;34.45;13.07;;;5.00;99.90;;;;;;4247411;28;20440;-58
2024/01/27 08:19:42;;;;;;;35.50;13.05;;;5.00;99.80;;;;;;4247349;28;20418;-59
2024/01/27 08:21:44;;;;;;;35.42;12.55;;;4.90;99.90;;;;;;4247247;28;20079;-59
2024/01/27 08:23:48;;;;;;;41.50;13.02;;;5.00;99.90;;;;;;4247457;28;20471;-59
2024/01/27 08:25:52;;;;;;;38.85;12.90;;;5.00;99.80;;;;;;4263715;27;20077;-60
2024/01/27 08:27:54;;;;;;;31.00;12.18;;;5.10;99.80;;;;;;4246663;27;20071;-58
2024/01/27 08:29:56;;;;;;;28.38;12.63;;;5.10;99.90;;;;;;4270454;27;20042;-66
2024/01/27 08:32:00;;;;;;;28.00;11.18;;;5.20;99.90;;;;;;4269018;27;20046;-59
2024/01/27 08:34:02;;;;;;;30.17;12.50;;;5.30;99.80;;;;;;4267627;27;20074;-59
2024/01/27 08:36:05;;;;;;;32.85;13.38;;;5.30;99.60;;;;;;4267638;27;20531;-59
2024/01/27 08:38:09;;;;;;;28.95;11.85;;;5.30;99.40;;;;;;4267512;27;20423;-58
2024/01/27 08:40:13;;;;;;;25.92;11.05;;;5.40;99.40;;;;;;4267919;27;20039;-59
2024/01/27 08:42:15;;;;;;;18.63;8.65;;;5.40;99.30;;;;;;4267347;27;20549;-59
2024/01/27 08:44:17;;;;;;;26.35;11.35;;;5.40;99.20;;;;;;4268515;27;20053;-59
2024/01/27 08:46:22;;;;;;;34.55;11.85;;;5.50;99.10;;;;;;4268160;27;20050;-58
2024/01/27 08:48:24;;;;;;;30.67;12.65;;;5.50;98.90;;;;;;4267398;27;20130;-58
2024/01/27 08:50:26;;;;;;;27.38;11.60;;;5.40;99.00;;;;;;4267612;27;20047;-58
2024/01/27 08:52:28;;;;;;;35.08;12.82;;;5.50;99.30;;;;;;4267566;27;20043;-59
2024/01/27 08:54:30;;;;;;;29.25;12.52;;;5.50;99.00;;;;;;4267169;27;20058;-58
2024/01/27 08:56:38;;;;;;;32.63;12.15;;;5.60;99.00;;;;;;4253244;27;20043;-58
2024/01/27 08:58:40;;;;;;;34.78;12.10;;;5.60;98.90;;;;;;4249875;27;20043;-58
2024/01/27 09:00:42;;;;;;;33.80;11.98;;;5.70;99.00;;;;;;4249918;27;20046;-59
2024/01/27 09:02:45;;;;;;;34.33;11.82;;;5.80;99.00;;;;;;4250145;27;20052;-60
2024/01/27 09:04:47;;;;;;;101.45;52.55;;;5.80;98.80;;;;;;4250124;27;20054;-59
2024/01/27 09:06:50;;;;;;;61.95;26.75;;;5.90;99.10;;;;;;4249952;27;20070;-59
2024/01/27 09:08:52;;;;;;;49.50;20.70;;;5.90;98.70;;;;;;4250142;27;20685;-59
2024/01/27 09:10:54;;;;;;;50.53;20.77;;;6.00;99.00;;;;;;4249955;27;20058;-62
2024/01/27 09:12:57;;;;;;;43.38;16.67;;;6.10;98.60;;;;;;4249523;27;20490;-59
2024/01/27 09:14:59;;;;;;;33.28;12.55;;;6.20;99.10;;;;;;4249982;27;20108;-59
2024/01/27 09:17:02;;;;;;;33.42;12.00;;;6.40;98.10;;;;;;4249669;27;20043;-57
2024/01/27 09:19:04;;;;;;;35.42;13.40;;;6.40;98.40;;;;;;4249648;27;20043;-58
2024/01/27 09:21:06;;;;;;;32.33;12.82;;;6.40;98.30;;;;;;4249379;27;20047;-58
2024/01/27 09:23:08;;;;;;;35.15;13.70;;;6.40;98.20;;;;;;4249694;27;20543;-59
2024/01/27 09:25:11;;;;;;;28.10;12.38;;;6.50;98.10;;;;;;4260170;27;20156;-60
2024/01/27 09:27:13;;;;;;;26.77;12.13;;;6.60;98.20;;;;;;4265876;27;20047;-58
2024/01/27 09:29:17;;;;;;;33.15;11.82;;;6.70;98.40;;;;;;4266363;27;20042;-59
2024/01/27 09:31:21;;;;;;;30.23;11.73;;;6.70;98.20;;;;;;4266418;27;20043;-59
2024/01/27 09:33:23;;;;;;;36.43;13.30;;;6.60;98.20;;;;;;4266110;27;20039;-58
2024/01/27 09:35:26;;;;;;;32.20;13.25;;;6.70;97.80;;;;;;4266065;27;20719;-58
2024/01/27 09:37:28;;;;;;;37.22;13.55;;;6.70;97.30;;;;;;4266466;27;20051;-58
2024/01/27 09:39:30;;;;;;;28.60;11.63;;;6.70;98.10;;;;;;4265655;27;20042;-57
2024/01/27 09:41:32;;;;;;;36.00;12.40;;;6.70;98.10;;;;;;4265740;27;20046;-57
2024/01/27 09:43:37;;;;;;;30.95;12.68;;;6.90;98.30;;;;;;4266362;27;20704;-58
2024/01/27 09:45:40;;;;;;;30.77;13.18;;;7.10;97.90;;;;;;4266223;27;20050;-58
2024/01/27 09:47:43;;;;;;;33.45;13.00;;;7.10;97.60;;;;;;4265965;27;20482;-58
2024/01/27 09:49:47;;;;;;;30.42;12.60;;;7.10;97.60;;;;;;4266040;27;20043;-58
2024/01/27 09:51:49;;;;;;;33.28;11.80;;;7.20;97.20;;;;;;4266163;27;20489;-58
2024/01/27 09:53:51;;;;;;;26.63;12.55;;;7.20;97.50;;;;;;4266160;27;20126;-58
2024/01/27 09:55:56;;;;;;;33.33;13.27;;;7.20;97.50;;;;;;4257197;27;20486;-59
2024/01/27 09:57:58;;;;;;;31.98;13.23;;;7.20;97.50;;;;;;4248595;27;20084;-59
2024/01/27 10:00:02;;;;;;;31.65;13.05;;;7.20;97.60;;;;;;4229085;28;20083;-59
2024/01/27 10:02:11;;;;;;;32.90;13.20;;;7.30;97.30;;;;;;4248334;27;20042;-58
2024/01/27 10:04:13;;;;;;;36.67;13.63;;;7.40;97.10;;;;;;4248512;27;20053;-59
2024/01/27 10:06:16;;;;;;;27.80;12.00;;;7.40;97.00;;;;;;4246546;27;20075;-59
2024/01/27 10:08:18;;;;;;;28.58;12.32;;;7.70;98.30;;;;;;4241267;27;20637;-59
2024/01/27 10:10:21;;;;;;;30.05;12.00;;;7.60;97.00;;;;;;4246762;27;20379;-58
2024/01/27 10:12:28;;;;;;;28.38;10.75;;;8.00;97.60;;;;;;4247709;27;20070;-58
2024/01/27 10:14:38;;;;;;;24.48;10.88;;;8.40;97.40;;;;;;4245294;27;20096;-60
2024/01/27 10:16:42;;;;;;;34.33;12.77;;;9.00;96.90;;;;;;4241635;27;20076;-59
2024/01/27 10:18:45;;;;;;;45.00;20.58;;;9.00;95.80;;;;;;4248096;27;20477;-59
2024/01/27 10:20:50;;;;;;;43.17;17.23;;;9.20;96.10;;;;;;4249259;27;20047;-60
2024/01/27 10:22:53;;;;;;;30.45;14.57;;;9.30;95.90;;;;;;4247594;27;20065;-59
2024/01/27 10:24:56;;;;;;;31.90;12.77;;;9.30;95.70;;;;;;4244536;27;20035;-59
2024/01/27 10:27:00;;;;;;;42.22;14.20;;;9.50;95.20;;;;;;4248253;27;20122;-59
2024/01/27 10:29:02;;;;;;;28.90;12.77;;;9.50;95.30;;;;;;4248025;27;20079;-58
2024/01/27 10:31:10;;;;;;;32.60;12.93;;;9.60;95.40;;;;;;4243719;27;20070;-58
2024/01/27 10:33:13;;;;;;;60.15;26.58;;;9.70;95.00;;;;;;4234280;27;20067;-57